sensor_id;sensor_type;location;lat;lon;timestamp;pressure;altitude;pressure_sealevel;temperature;humidity
12793;BME280;6460;42.684;23.260;2023-12-20T00:01:54;94972.00;;;1.82;100.00
12793;BME280;6460;42.684;23.260;2023-12-20T00:04:22;94966.50;;;1.92;100.00
12793;BME280;6460;42.684;23.260;2023-12-20T00:06:50;94961.78;;;1.75;100.00
12793;BME280;6460;42.684;23.260;2023-12-20T00:09:18;94962.66;;;1.52;100.00
12793;BME280;6460;42.684;23.260;2023-12-20T00:11:46;94954.47;;;1.67;100.00
12793;BME280;6460;42.684;23.260;2023-12-20T00:14:16;94952.53;;;1.73;100.00
12793;BME280;6460;42.684;23.260;2023-12-20T00:16:44;94948.75;;;1.60;100.00
12793;BME280;6460;42.684;23.260;2023-12-20T00:19:12;94951.41;;;1.92;100.00
12793;BME280;6460;42.684;23.260;2023-12-20T00:21:40;94940.22;;;1.63;100.00
12793;BME280;6460;42.684;23.260;2023-12-20T00:24:08;94935.94;;;1.67;100.00
12793;BME280;6460;42.684;23.260;2023-12-20T00:26:36;94934.72;;;1.27;100.00
12793;BME280;6460;42.684;23.260;2023-12-20T00:29:04;94925.91;;;1.32;100.00
12793;BME280;6460;42.684;23.260;2023-12-20T00:31:33;94925.38;;;1.48;100.00
12793;BME280;6460;42.684;23.260;2023-12-20T00:34:01;94918.75;;;1.65;100.00
12793;BME280;6460;42.684;23.260;2023-12-20T00:36:29;94922.63;;;1.40;100.00
12793;BME280;6460;42.684;23.260;2023-12-20T00:38:56;94915.81;;;1.66;100.00
12793;BME280;6460;42.684;23.260;2023-12-20T00:41:24;94912.09;;;1.67;100.00
12793;BME280;6460;42.684;23.260;2023-12-20T00:43:52;94912.34;;;1.84;100.00
12793;BME280;6460;42.684;23.260;2023-12-20T00:46:20;94917.97;;;1.64;100.00
12793;BME280;6460;42.684;23.260;2023-12-20T00:48:49;94904.63;;;1.55;100.00
12793;BME280;6460;42.684;23.260;2023-12-20T00:51:17;94912.63;;;1.83;100.00
12793;BME280;6460;42.684;23.260;2023-12-20T00:53:44;94907.09;;;1.79;100.00
12793;BME280;6460;42.684;23.260;2023-12-20T00:56:15;94904.44;;;1.66;100.00
12793;BME280;6460;42.684;23.260;2023-12-20T00:58:43;94906.03;;;1.80;100.00
12793;BME280;6460;42.684;23.260;2023-12-20T01:01:11;94908.13;;;1.51;100.00
12793;BME280;6460;42.684;23.260;2023-12-20T01:03:39;94899.44;;;1.32;100.00
12793;BME280;6460;42.684;23.260;2023-12-20T01:06:08;94895.28;;;1.26;100.00
12793;BME280;6460;42.684;23.260;2023-12-20T01:08:37;94895.13;;;1.36;100.00
12793;BME280;6460;42.684;23.260;2023-12-20T01:11:05;94884.72;;;1.26;100.00
12793;BME280;6460;42.684;23.260;2023-12-20T01:13:33;94877.25;;;1.28;100.00
12793;BME280;6460;42.684;23.260;2023-12-20T01:16:01;94885.81;;;1.38;100.00
12793;BME280;6460;42.684;23.260;2023-12-20T01:18:29;94881.53;;;1.42;100.00
12793;BME280;6460;42.684;23.260;2023-12-20T01:21:01;94879.31;;;1.49;100.00
12793;BME280;6460;42.684;23.260;2023-12-20T01:23:30;94872.25;;;1.58;100.00
12793;BME280;6460;42.684;23.260;2023-12-20T01:25:58;94867.00;;;1.72;100.00
12793;BME280;6460;42.684;23.260;2023-12-20T01:28:27;94860.50;;;1.78;100.00
12793;BME280;6460;42.684;23.260;2023-12-20T01:30:55;94857.28;;;1.81;100.00
12793;BME280;6460;42.684;23.260;2023-12-20T01:33:23;94852.63;;;1.73;100.00
12793;BME280;6460;42.684;23.260;2023-12-20T01:35:51;94860.59;;;1.59;100.00
12793;BME280;6460;42.684;23.260;2023-12-20T01:38:18;94852.88;;;1.12;100.00
12793;BME280;6460;42.684;23.260;2023-12-20T01:40:47;94847.72;;;0.88;100.00
12793;BME280;6460;42.684;23.260;2023-12-20T01:43:14;94850.44;;;1.16;100.00
12793;BME280;6460;42.684;23.260;2023-12-20T01:45:41;94831.75;;;1.26;100.00
12793;BME280;6460;42.684;23.260;2023-12-20T01:48:09;94839.78;;;1.21;100.00
12793;BME280;6460;42.684;23.260;2023-12-20T01:50:37;94835.31;;;1.35;100.00
12793;BME280;6460;42.684;23.260;2023-12-20T01:53:06;94833.38;;;1.08;100.00
12793;BME280;6460;42.684;23.260;2023-12-20T01:55:37;94830.22;;;1.38;100.00
12793;BME280;6460;42.684;23.260;2023-12-20T01:58:07;94829.13;;;1.26;100.00
12793;BME280;6460;42.684;23.260;2023-12-20T02:00:36;94827.25;;;1.26;100.00
12793;BME280;6460;42.684;23.260;2023-12-20T02:03:04;94826.50;;;1.39;100.00
12793;BME280;6460;42.684;23.260;2023-12-20T02:05:33;94819.44;;;1.35;100.00
12793;BME280;6460;42.684;23.260;2023-12-20T02:08:01;94825.72;;;1.39;100.00
12793;BME280;6460;42.684;23.260;2023-12-20T02:10:30;94824.56;;;1.58;100.00
12793;BME280;6460;42.684;23.260;2023-12-20T02:12:58;94816.88;;;1.30;100.00
12793;BME280;6460;42.684;23.260;2023-12-20T02:15:27;94813.66;;;1.00;100.00
12793;BME280;6460;42.684;23.260;2023-12-20T02:17:56;94803.91;;;1.15;100.00
12793;BME280;6460;42.684;23.260;2023-12-20T02:20:24;94809.22;;;1.28;100.00
12793;BME280;6460;42.684;23.260;2023-12-20T02:22:53;94806.38;;;0.92;100.00
12793;BME280;6460;42.684;23.260;2023-12-20T02:25:21;94799.50;;;1.24;100.00
12793;BME280;6460;42.684;23.260;2023-12-20T02:27:50;94801.16;;;1.20;100.00
12793;BME280;6460;42.684;23.260;2023-12-20T02:30:18;94794.81;;;1.21;100.00
12793;BME280;6460;42.684;23.260;2023-12-20T02:32:46;94795.38;;;1.18;100.00
12793;BME280;6460;42.684;23.260;2023-12-20T02:35:14;94782.78;;;1.42;100.00
12793;BME280;6460;42.684;23.260;2023-12-20T02:37:43;94787.69;;;1.48;100.00
12793;BME280;6460;42.684;23.260;2023-12-20T02:40:12;94773.75;;;1.43;100.00
12793;BME280;6460;42.684;23.260;2023-12-20T02:42:40;94774.53;;;1.57;100.00
12793;BME280;6460;42.684;23.260;2023-12-20T02:45:08;94777.97;;;1.44;100.00
12793;BME280;6460;42.684;23.260;2023-12-20T02:47:36;94776.13;;;1.12;100.00
12793;BME280;6460;42.684;23.260;2023-12-20T02:50:04;94784.69;;;1.23;100.00
12793;BME280;6460;42.684;23.260;2023-12-20T02:52:32;94770.16;;;0.74;100.00
12793;BME280;6460;42.684;23.260;2023-12-20T02:55:00;94779.34;;;0.95;100.00
12793;BME280;6460;42.684;23.260;2023-12-20T02:57:30;94769.50;;;1.15;100.00
12793;BME280;6460;42.684;23.260;2023-12-20T02:59:59;94779.03;;;1.29;100.00
12793;BME280;6460;42.684;23.260;2023-12-20T03:02:26;94775.44;;;1.06;100.00
12793;BME280;6460;42.684;23.260;2023-12-20T03:04:54;94766.50;;;1.02;100.00
12793;BME280;6460;42.684;23.260;2023-12-20T03:07:22;94776.03;;;1.03;100.00
12793;BME280;6460;42.684;23.260;2023-12-20T03:09:50;94764.09;;;1.20;100.00
12793;BME280;6460;42.684;23.260;2023-12-20T03:12:18;94769.69;;;1.18;100.00
12793;BME280;6460;42.684;23.260;2023-12-20T03:14:48;94772.22;;;0.77;100.00
12793;BME280;6460;42.684;23.260;2023-12-20T03:17:16;94771.69;;;0.94;100.00
12793;BME280;6460;42.684;23.260;2023-12-20T03:19:45;94765.38;;;0.76;100.00
12793;BME280;6460;42.684;23.260;2023-12-20T03:22:13;94774.22;;;0.85;100.00
12793;BME280;6460;42.684;23.260;2023-12-20T03:24:40;94763.97;;;0.97;100.00
12793;BME280;6460;42.684;23.260;2023-12-20T03:27:08;94758.97;;;1.10;100.00
12793;BME280;6460;42.684;23.260;2023-12-20T03:29:35;94761.72;;;0.72;100.00
12793;BME280;6460;42.684;23.260;2023-12-20T03:32:05;94754.09;;;0.52;100.00
12793;BME280;6460;42.684;23.260;2023-12-20T03:34:34;94755.75;;;0.29;100.00
12793;BME280;6460;42.684;23.260;2023-12-20T03:37:02;94739.50;;;0.54;100.00
12793;BME280;6460;42.684;23.260;2023-12-20T03:39:30;94750.03;;;0.60;100.00
12793;BME280;6460;42.684;23.260;2023-12-20T03:41:58;94741.69;;;0.85;100.00
12793;BME280;6460;42.684;23.260;2023-12-20T03:44:26;94752.00;;;0.68;100.00
12793;BME280;6460;42.684;23.260;2023-12-20T03:46:54;94747.97;;;0.89;100.00
12793;BME280;6460;42.684;23.260;2023-12-20T03:49:24;94749.31;;;0.54;100.00
12793;BME280;6460;42.684;23.260;2023-12-20T03:51:52;94753.84;;;0.35;100.00
12793;BME280;6460;42.684;23.260;2023-12-20T03:54:20;94747.41;;;0.41;100.00
12793;BME280;6460;42.684;23.260;2023-12-20T03:56:48;94747.63;;;0.44;100.00
12793;BME280;6460;42.684;23.260;2023-12-20T03:59:16;94740.66;;;0.48;100.00
12793;BME280;6460;42.684;23.260;2023-12-20T04:01:44;94746.50;;;0.64;100.00
12793;BME280;6460;42.684;23.260;2023-12-20T04:04:13;94735.81;;;0.37;100.00
12793;BME280;6460;42.684;23.260;2023-12-20T04:06:42;94734.94;;;0.60;100.00
12793;BME280;6460;42.684;23.260;2023-12-20T04:09:11;94732.63;;;0.40;100.00
12793;BME280;6460;42.684;23.260;2023-12-20T04:11:39;94733.38;;;0.59;100.00
12793;BME280;6460;42.684;23.260;2023-12-20T04:14:07;94718.41;;;0.68;100.00
12793;BME280;6460;42.684;23.260;2023-12-20T04:16:34;94720.47;;;0.71;100.00
12793;BME280;6460;42.684;23.260;2023-12-20T04:19:02;94720.56;;;0.34;100.00
12793;BME280;6460;42.684;23.260;2023-12-20T04:21:30;94713.31;;;0.39;100.00
12793;BME280;6460;42.684;23.260;2023-12-20T04:24:00;94713.91;;;0.36;100.00
12793;BME280;6460;42.684;23.260;2023-12-20T04:26:28;94713.47;;;0.29;100.00
12793;BME280;6460;42.684;23.260;2023-12-20T04:28:57;94711.47;;;0.40;100.00
12793;BME280;6460;42.684;23.260;2023-12-20T04:31:25;94715.41;;;0.05;100.00
12793;BME280;6460;42.684;23.260;2023-12-20T04:33:53;94714.84;;;0.08;100.00
12793;BME280;6460;42.684;23.260;2023-12-20T04:36:21;94706.28;;;0.35;100.00
12793;BME280;6460;42.684;23.260;2023-12-20T04:38:49;94702.00;;;0.02;100.00
12793;BME280;6460;42.684;23.260;2023-12-20T04:41:18;94700.56;;;0.28;100.00
12793;BME280;6460;42.684;23.260;2023-12-20T04:43:46;94709.63;;;0.40;100.00
12793;BME280;6460;42.684;23.260;2023-12-20T04:46:14;94705.91;;;0.23;100.00
12793;BME280;6460;42.684;23.260;2023-12-20T04:48:42;94702.63;;;0.31;100.00
12793;BME280;6460;42.684;23.260;2023-12-20T04:51:11;94699.63;;;0.37;100.00
12793;BME280;6460;42.684;23.260;2023-12-20T04:53:39;94703.25;;;0.23;100.00
12793;BME280;6460;42.684;23.260;2023-12-20T04:56:06;94702.38;;;0.46;100.00
12793;BME280;6460;42.684;23.260;2023-12-20T04:58:36;94702.22;;;0.56;100.00
12793;BME280;6460;42.684;23.260;2023-12-20T05:01:05;94693.66;;;0.45;100.00
12793;BME280;6460;42.684;23.260;2023-12-20T05:03:33;94698.91;;;0.64;100.00
12793;BME280;6460;42.684;23.260;2023-12-20T05:06:01;94685.19;;;0.62;100.00
12793;BME280;6460;42.684;23.260;2023-12-20T05:08:29;94695.09;;;0.57;100.00
12793;BME280;6460;42.684;23.260;2023-12-20T05:10:58;94681.97;;;0.33;100.00
12793;BME280;6460;42.684;23.260;2023-12-20T05:13:26;94682.22;;;0.50;100.00
12793;BME280;6460;42.684;23.260;2023-12-20T05:15:55;94684.19;;;0.26;100.00
12793;BME280;6460;42.684;23.260;2023-12-20T05:18:23;94681.22;;;0.46;100.00
12793;BME280;6460;42.684;23.260;2023-12-20T05:20:51;94680.44;;;0.45;100.00
12793;BME280;6460;42.684;23.260;2023-12-20T05:23:19;94682.44;;;0.53;100.00
12793;BME280;6460;42.684;23.260;2023-12-20T05:25:47;94675.25;;;0.40;100.00
12793;BME280;6460;42.684;23.260;2023-12-20T05:28:15;94673.75;;;0.34;100.00
12793;BME280;6460;42.684;23.260;2023-12-20T05:30:43;94667.50;;;0.12;100.00
12793;BME280;6460;42.684;23.260;2023-12-20T05:33:13;94664.72;;;0.22;100.00
12793;BME280;6460;42.684;23.260;2023-12-20T05:35:41;94666.69;;;0.30;100.00
12793;BME280;6460;42.684;23.260;2023-12-20T05:38:09;94663.28;;;0.11;100.00
12793;BME280;6460;42.684;23.260;2023-12-20T05:40:37;94658.47;;;0.31;100.00
12793;BME280;6460;42.684;23.260;2023-12-20T05:43:05;94654.94;;;0.22;100.00
12793;BME280;6460;42.684;23.260;2023-12-20T05:45:32;94663.50;;;0.14;100.00
12793;BME280;6460;42.684;23.260;2023-12-20T05:48:00;94659.00;;;0.15;100.00
12793;BME280;6460;42.684;23.260;2023-12-20T05:50:30;94666.16;;;-0.05;100.00
12793;BME280;6460;42.684;23.260;2023-12-20T05:52:58;94656.16;;;-0.26;100.00
12793;BME280;6460;42.684;23.260;2023-12-20T05:55:26;94656.31;;;-0.18;100.00
12793;BME280;6460;42.684;23.260;2023-12-20T05:57:53;94657.00;;;0.07;100.00
12793;BME280;6460;42.684;23.260;2023-12-20T06:00:21;94651.16;;;-0.09;100.00
12793;BME280;6460;42.684;23.260;2023-12-20T06:02:49;94649.59;;;0.09;100.00
12793;BME280;6460;42.684;23.260;2023-12-20T06:05:17;94645.09;;;0.09;100.00
12793;BME280;6460;42.684;23.260;2023-12-20T06:07:46;94642.34;;;0.14;100.00
12793;BME280;6460;42.684;23.260;2023-12-20T06:10:16;94649.50;;;0.14;100.00
12793;BME280;6460;42.684;23.260;2023-12-20T06:12:43;94640.09;;;0.08;100.00
12793;BME280;6460;42.684;23.260;2023-12-20T06:15:13;94652.06;;;0.19;100.00
12793;BME280;6460;42.684;23.260;2023-12-20T06:17:41;94650.59;;;0.13;100.00
12793;BME280;6460;42.684;23.260;2023-12-20T06:20:10;94658.31;;;0.09;100.00
12793;BME280;6460;42.684;23.260;2023-12-20T06:22:38;94660.78;;;-0.18;100.00
12793;BME280;6460;42.684;23.260;2023-12-20T06:25:08;94653.41;;;-0.16;100.00
12793;BME280;6460;42.684;23.260;2023-12-20T06:27:36;94657.09;;;-0.17;100.00
12793;BME280;6460;42.684;23.260;2023-12-20T06:30:05;94660.78;;;-0.18;100.00
12793;BME280;6460;42.684;23.260;2023-12-20T06:32:33;94649.38;;;-0.32;100.00
12793;BME280;6460;42.684;23.260;2023-12-20T06:35:01;94660.16;;;-0.29;100.00
12793;BME280;6460;42.684;23.260;2023-12-20T06:37:31;94657.00;;;-0.31;100.00
12793;BME280;6460;42.684;23.260;2023-12-20T06:39:59;94654.25;;;-0.21;100.00
12793;BME280;6460;42.684;23.260;2023-12-20T06:42:28;94651.38;;;-0.24;100.00
12793;BME280;6460;42.684;23.260;2023-12-20T06:44:56;94653.56;;;-0.13;100.00
12793;BME280;6460;42.684;23.260;2023-12-20T06:47:23;94646.75;;;-0.14;100.00
12793;BME280;6460;42.684;23.260;2023-12-20T06:49:50;94643.41;;;-0.19;100.00
12793;BME280;6460;42.684;23.260;2023-12-20T06:52:17;94636.94;;;-0.32;100.00
12793;BME280;6460;42.684;23.260;2023-12-20T06:54:45;94631.25;;;-0.39;100.00
12793;BME280;6460;42.684;23.260;2023-12-20T06:57:12;94631.97;;;-0.33;100.00
12793;BME280;6460;42.684;23.260;2023-12-20T06:59:41;94632.75;;;-0.33;100.00
12793;BME280;6460;42.684;23.260;2023-12-20T07:02:10;94624.75;;;-0.28;100.00
12793;BME280;6460;42.684;23.260;2023-12-20T07:04:39;94629.13;;;-0.37;100.00
12793;BME280;6460;42.684;23.260;2023-12-20T07:07:06;94620.41;;;-0.56;100.00
12793;BME280;6460;42.684;23.260;2023-12-20T07:09:33;94620.00;;;-0.26;100.00
12793;BME280;6460;42.684;23.260;2023-12-20T07:12:01;94622.13;;;-0.46;100.00
12793;BME280;6460;42.684;23.260;2023-12-20T07:14:28;94620.31;;;-0.51;100.00
12793;BME280;6460;42.684;23.260;2023-12-20T07:16:58;94621.97;;;-0.36;100.00
12793;BME280;6460;42.684;23.260;2023-12-20T07:19:25;94618.25;;;0.02;100.00
12793;BME280;6460;42.684;23.260;2023-12-20T07:21:53;94615.50;;;0.07;100.00
12793;BME280;6460;42.684;23.260;2023-12-20T07:24:21;94610.00;;;0.04;100.00
12793;BME280;6460;42.684;23.260;2023-12-20T07:26:49;94610.91;;;-0.01;100.00
12793;BME280;6460;42.684;23.260;2023-12-20T07:29:18;94612.28;;;0.10;100.00
12793;BME280;6460;42.684;23.260;2023-12-20T07:31:46;94604.38;;;0.10;100.00
12793;BME280;6460;42.684;23.260;2023-12-20T07:34:15;94597.75;;;0.13;100.00
12793;BME280;6460;42.684;23.260;2023-12-20T07:36:43;94605.72;;;0.08;100.00
12793;BME280;6460;42.684;23.260;2023-12-20T07:39:11;94611.84;;;0.22;100.00
12793;BME280;6460;42.684;23.260;2023-12-20T07:41:39;94607.31;;;0.41;100.00
12793;BME280;6460;42.684;23.260;2023-12-20T07:44:07;94606.22;;;0.42;100.00
12793;BME280;6460;42.684;23.260;2023-12-20T07:46:35;94609.28;;;0.49;100.00
12793;BME280;6460;42.684;23.260;2023-12-20T07:49:04;94605.66;;;0.59;100.00
12793;BME280;6460;42.684;23.260;2023-12-20T07:51:34;94605.97;;;0.57;100.00
12793;BME280;6460;42.684;23.260;2023-12-20T07:54:02;94601.88;;;0.78;100.00
12793;BME280;6460;42.684;23.260;2023-12-20T07:56:31;94602.88;;;0.82;100.00
12793;BME280;6460;42.684;23.260;2023-12-20T07:58:59;94603.34;;;0.84;100.00
12793;BME280;6460;42.684;23.260;2023-12-20T08:01:27;94594.72;;;0.79;100.00
12793;BME280;6460;42.684;23.260;2023-12-20T08:03:55;94597.16;;;1.02;100.00
12793;BME280;6460;42.684;23.260;2023-12-20T08:06:23;94588.63;;;1.05;100.00
12793;BME280;6460;42.684;23.260;2023-12-20T08:08:52;94581.41;;;1.11;100.00
12793;BME280;6460;42.684;23.260;2023-12-20T08:11:20;94585.72;;;1.07;100.00
12793;BME280;6460;42.684;23.260;2023-12-20T08:13:48;94593.94;;;1.05;100.00
12793;BME280;6460;42.684;23.260;2023-12-20T08:16:17;94581.34;;;1.38;100.00
12793;BME280;6460;42.684;23.260;2023-12-20T08:18:45;94577.22;;;1.46;100.00
12793;BME280;6460;42.684;23.260;2023-12-20T08:21:13;94570.81;;;1.47;100.00
12793;BME280;6460;42.684;23.260;2023-12-20T08:23:41;94565.19;;;2.51;100.00
12793;BME280;6460;42.684;23.260;2023-12-20T08:26:11;94566.25;;;3.29;100.00
12793;BME280;6460;42.684;23.260;2023-12-20T08:28:39;94571.25;;;2.82;100.00
12793;BME280;6460;42.684;23.260;2023-12-20T08:31:07;94568.53;;;2.34;100.00
12793;BME280;6460;42.684;23.260;2023-12-20T08:33:41;94562.47;;;2.11;100.00
12793;BME280;6460;42.684;23.260;2023-12-20T08:36:09;94556.44;;;1.97;100.00
12793;BME280;6460;42.684;23.260;2023-12-20T08:38:37;94553.31;;;1.95;100.00
12793;BME280;6460;42.684;23.260;2023-12-20T08:41:05;94546.28;;;1.91;100.00
12793;BME280;6460;42.684;23.260;2023-12-20T08:43:34;94553.44;;;1.90;100.00
12793;BME280;6460;42.684;23.260;2023-12-20T08:46:02;94539.44;;;1.76;100.00
12793;BME280;6460;42.684;23.260;2023-12-20T08:48:30;94542.09;;;1.76;100.00
12793;BME280;6460;42.684;23.260;2023-12-20T08:50:58;94537.31;;;1.78;100.00
12793;BME280;6460;42.684;23.260;2023-12-20T08:53:26;94539.22;;;1.86;100.00
12793;BME280;6460;42.684;23.260;2023-12-20T08:55:54;94538.00;;;1.92;100.00
12793;BME280;6460;42.684;23.260;2023-12-20T08:58:22;94526.94;;;1.90;100.00
12793;BME280;6460;42.684;23.260;2023-12-20T09:00:51;94521.78;;;1.27;100.00
12793;BME280;6460;42.684;23.260;2023-12-20T09:03:19;94521.03;;;1.71;100.00
12793;BME280;6460;42.684;23.260;2023-12-20T09:05:46;94510.91;;;1.73;100.00
12793;BME280;6460;42.684;23.260;2023-12-20T09:08:14;94502.13;;;1.86;100.00
12793;BME280;6460;42.684;23.260;2023-12-20T09:10:42;94494.31;;;1.81;100.00
12793;BME280;6460;42.684;23.260;2023-12-20T09:13:10;94484.25;;;1.70;100.00
12793;BME280;6460;42.684;23.260;2023-12-20T09:15:38;94474.56;;;1.87;100.00
12793;BME280;6460;42.684;23.260;2023-12-20T09:18:08;94471.75;;;1.92;100.00
12793;BME280;6460;42.684;23.260;2023-12-20T09:20:36;94456.84;;;1.96;100.00
12793;BME280;6460;42.684;23.260;2023-12-20T09:23:04;94458.25;;;2.02;100.00
12793;BME280;6460;42.684;23.260;2023-12-20T09:25:32;94447.84;;;2.06;100.00
12793;BME280;6460;42.684;23.260;2023-12-20T09:28:00;94443.69;;;2.13;100.00
12793;BME280;6460;42.684;23.260;2023-12-20T09:30:27;94439.66;;;2.25;100.00
12793;BME280;6460;42.684;23.260;2023-12-20T09:32:55;94444.78;;;2.21;100.00
12793;BME280;6460;42.684;23.260;2023-12-20T09:35:24;94436.47;;;2.14;100.00
12793;BME280;6460;42.684;23.260;2023-12-20T09:37:52;94431.69;;;2.25;100.00
12793;BME280;6460;42.684;23.260;2023-12-20T09:40:20;94420.03;;;2.34;100.00
12793;BME280;6460;42.684;23.260;2023-12-20T09:42:56;94419.41;;;2.29;100.00
12793;BME280;6460;42.684;23.260;2023-12-20T09:45:24;94409.13;;;2.36;100.00
12793;BME280;6460;42.684;23.260;2023-12-20T09:47:53;94408.53;;;2.47;100.00
12793;BME280;6460;42.684;23.260;2023-12-20T09:50:21;94406.38;;;2.58;100.00
12793;BME280;6460;42.684;23.260;2023-12-20T09:52:52;94410.00;;;2.71;100.00
12793;BME280;6460;42.684;23.260;2023-12-20T09:55:22;94395.78;;;2.75;100.00
12793;BME280;6460;42.684;23.260;2023-12-20T09:57:50;94390.63;;;2.61;100.00
12793;BME280;6460;42.684;23.260;2023-12-20T10:00:18;94394.66;;;2.59;100.00
12793;BME280;6460;42.684;23.260;2023-12-20T10:02:50;94394.25;;;2.74;100.00
12793;BME280;6460;42.684;23.260;2023-12-20T10:05:26;94386.75;;;2.85;100.00
12793;BME280;6460;42.684;23.260;2023-12-20T10:07:56;94394.13;;;2.96;100.00
12793;BME280;6460;42.684;23.260;2023-12-20T10:10:25;94387.84;;;3.01;100.00
12793;BME280;6460;42.684;23.260;2023-12-20T10:13:04;94383.66;;;3.08;100.00
12793;BME280;6460;42.684;23.260;2023-12-20T10:15:33;94377.84;;;3.06;100.00
12793;BME280;6460;42.684;23.260;2023-12-20T10:18:00;94368.97;;;2.85;100.00
12793;BME280;6460;42.684;23.260;2023-12-20T10:20:28;94363.81;;;2.97;100.00
12793;BME280;6460;42.684;23.260;2023-12-20T10:22:58;94360.84;;;3.07;100.00
12793;BME280;6460;42.684;23.260;2023-12-20T10:25:26;94357.69;;;3.22;100.00
12793;BME280;6460;42.684;23.260;2023-12-20T10:28:09;94346.63;;;3.20;100.00
12793;BME280;6460;42.684;23.260;2023-12-20T10:30:37;94335.34;;;3.41;100.00
12793;BME280;6460;42.684;23.260;2023-12-20T10:33:05;94336.38;;;3.65;100.00
12793;BME280;6460;42.684;23.260;2023-12-20T10:35:34;94329.13;;;3.83;100.00
12793;BME280;6460;42.684;23.260;2023-12-20T10:38:05;94324.91;;;3.82;100.00
12793;BME280;6460;42.684;23.260;2023-12-20T10:40:35;94316.13;;;3.90;100.00
12793;BME280;6460;42.684;23.260;2023-12-20T10:43:04;94311.03;;;4.06;100.00
12793;BME280;6460;42.684;23.260;2023-12-20T10:45:32;94307.06;;;4.20;100.00
12793;BME280;6460;42.684;23.260;2023-12-20T10:48:01;94309.16;;;4.36;100.00
12793;BME280;6460;42.684;23.260;2023-12-20T10:50:30;94298.88;;;4.55;100.00
12793;BME280;6460;42.684;23.260;2023-12-20T10:52:58;94289.38;;;4.45;100.00
12793;BME280;6460;42.684;23.260;2023-12-20T10:55:27;94295.59;;;4.78;100.00
12793;BME280;6460;42.684;23.260;2023-12-20T10:57:59;94288.06;;;5.13;100.00
12793;BME280;6460;42.684;23.260;2023-12-20T11:00:29;94290.53;;;5.75;100.00
12793;BME280;6460;42.684;23.260;2023-12-20T11:03:00;94276.94;;;6.01;100.00
12793;BME280;6460;42.684;23.260;2023-12-20T11:05:38;94267.59;;;6.19;100.00
12793;BME280;6460;42.684;23.260;2023-12-20T11:08:12;94270.81;;;6.25;100.00
12793;BME280;6460;42.684;23.260;2023-12-20T11:10:49;94258.34;;;6.41;100.00
12793;BME280;6460;42.684;23.260;2023-12-20T11:13:22;94267.13;;;6.54;100.00
12793;BME280;6460;42.684;23.260;2023-12-20T11:15:51;94260.25;;;6.80;100.00
12793;BME280;6460;42.684;23.260;2023-12-20T11:18:18;94250.75;;;6.95;100.00
12793;BME280;6460;42.684;23.260;2023-12-20T11:20:46;94243.84;;;6.94;100.00
12793;BME280;6460;42.684;23.260;2023-12-20T11:23:14;94245.41;;;7.38;100.00
12793;BME280;6460;42.684;23.260;2023-12-20T11:25:53;94241.47;;;7.64;96.21
12793;BME280;6460;42.684;23.260;2023-12-20T11:28:22;94224.13;;;7.89;88.30
12793;BME280;6460;42.684;23.260;2023-12-20T11:30:52;94213.63;;;9.23;100.00
12793;BME280;6460;42.684;23.260;2023-12-20T11:33:23;94201.66;;;9.40;98.50
12793;BME280;6460;42.684;23.260;2023-12-20T11:35:52;94195.34;;;9.10;85.65
12793;BME280;6460;42.684;23.260;2023-12-20T11:38:22;94202.34;;;8.95;78.95
12793;BME280;6460;42.684;23.260;2023-12-20T11:40:54;94185.09;;;9.34;76.84
12793;BME280;6460;42.684;23.260;2023-12-20T11:43:31;94185.16;;;9.38;73.31
12793;BME280;6460;42.684;23.260;2023-12-20T11:46:04;94177.41;;;9.55;72.78
12793;BME280;6460;42.684;23.260;2023-12-20T11:48:34;94178.06;;;9.72;70.89
12793;BME280;6460;42.684;23.260;2023-12-20T11:51:02;94172.16;;;9.63;71.03
12793;BME280;6460;42.684;23.260;2023-12-20T11:53:30;94160.13;;;9.53;70.90
12793;BME280;6460;42.684;23.260;2023-12-20T11:56:01;94161.34;;;9.82;70.48
12793;BME280;6460;42.684;23.260;2023-12-20T11:58:29;94152.69;;;10.18;68.32
12793;BME280;6460;42.684;23.260;2023-12-20T12:00:56;94151.41;;;10.35;67.40
12793;BME280;6460;42.684;23.260;2023-12-20T12:03:25;94146.66;;;9.98;67.60
12793;BME280;6460;42.684;23.260;2023-12-20T12:05:53;94145.97;;;10.31;65.57
12793;BME280;6460;42.684;23.260;2023-12-20T12:08:21;94134.81;;;10.55;65.18
12793;BME280;6460;42.684;23.260;2023-12-20T12:10:49;94133.28;;;10.58;62.93
12793;BME280;6460;42.684;23.260;2023-12-20T12:13:18;94113.22;;;10.48;62.76
12793;BME280;6460;42.684;23.260;2023-12-20T12:15:46;94122.28;;;10.37;63.50
12793;BME280;6460;42.684;23.260;2023-12-20T12:18:16;94120.31;;;10.07;64.44
12793;BME280;6460;42.684;23.260;2023-12-20T12:20:43;94114.31;;;10.14;65.24
12793;BME280;6460;42.684;23.260;2023-12-20T12:23:11;94115.72;;;10.34;63.19
12793;BME280;6460;42.684;23.260;2023-12-20T12:25:39;94100.66;;;10.26;63.94
12793;BME280;6460;42.684;23.260;2023-12-20T12:28:06;94097.72;;;10.38;63.43
12793;BME280;6460;42.684;23.260;2023-12-20T12:30:35;94104.06;;;10.23;63.90
12793;BME280;6460;42.684;23.260;2023-12-20T12:33:03;94109.53;;;10.30;64.34
12793;BME280;6460;42.684;23.260;2023-12-20T12:35:31;94109.75;;;10.48;63.12
12793;BME280;6460;42.684;23.260;2023-12-20T12:37:59;94112.38;;;10.44;62.32
12793;BME280;6460;42.684;23.260;2023-12-20T12:40:28;94107.16;;;10.25;62.67
12793;BME280;6460;42.684;23.260;2023-12-20T12:42:55;94103.75;;;10.28;62.90
12793;BME280;6460;42.684;23.260;2023-12-20T12:45:23;94103.81;;;9.79;65.94
12793;BME280;6460;42.684;23.260;2023-12-20T12:47:52;94094.25;;;9.82;65.31
12793;BME280;6460;42.684;23.260;2023-12-20T12:50:20;94091.69;;;9.89;65.70
12793;BME280;6460;42.684;23.260;2023-12-20T12:52:48;94097.16;;;9.70;66.02
12793;BME280;6460;42.684;23.260;2023-12-20T12:55:16;94091.31;;;9.64;67.13
12793;BME280;6460;42.684;23.260;2023-12-20T12:57:43;94087.03;;;9.60;66.44
12793;BME280;6460;42.684;23.260;2023-12-20T13:00:12;94086.09;;;9.48;67.14
12793;BME280;6460;42.684;23.260;2023-12-20T13:02:39;94081.50;;;9.49;76.37
12793;BME280;6460;42.684;23.260;2023-12-20T13:05:09;94081.88;;;9.47;73.88
12793;BME280;6460;42.684;23.260;2023-12-20T13:07:37;94079.47;;;9.42;69.25